sensor_id;sensor_type;location;lat;lon;timestamp;P1;durP1;ratioP1;P2;durP2;ratioP2
40781;SDS011;26493;51.938;7.626;2023-06-22T00:01:28;23.50;;;16.20;;
40781;SDS011;26493;51.938;7.626;2023-06-22T00:03:54;23.38;;;17.02;;
40781;SDS011;26493;51.938;7.626;2023-06-22T00:06:20;23.63;;;16.90;;
40781;SDS011;26493;51.938;7.626;2023-06-22T00:08:46;22.30;;;16.40;;
40781;SDS011;26493;51.938;7.626;2023-06-22T00:11:12;21.85;;;17.30;;
40781;SDS011;26493;51.938;7.626;2023-06-22T00:13:39;22.17;;;17.17;;
40781;SDS011;26493;51.938;7.626;2023-06-22T00:16:05;22.55;;;17.30;;
40781;SDS011;26493;51.938;7.626;2023-06-22T00:18:31;22.40;;;17.15;;
40781;SDS011;26493;51.938;7.626;2023-06-22T00:20:57;25.58;;;16.95;;
40781;SDS011;26493;51.938;7.626;2023-06-22T00:23:23;22.75;;;16.95;;
40781;SDS011;26493;51.938;7.626;2023-06-22T00:25:49;22.90;;;17.67;;
40781;SDS011;26493;51.938;7.626;2023-06-22T00:28:15;22.30;;;17.35;;
40781;SDS011;26493;51.938;7.626;2023-06-22T00:30:41;22.90;;;16.90;;
40781;SDS011;26493;51.938;7.626;2023-06-22T00:33:07;23.15;;;17.20;;
40781;SDS011;26493;51.938;7.626;2023-06-22T00:35:33;22.42;;;16.83;;
40781;SDS011;26493;51.938;7.626;2023-06-22T00:38:00;21.50;;;16.73;;
40781;SDS011;26493;51.938;7.626;2023-06-22T00:40:27;22.40;;;17.00;;
40781;SDS011;26493;51.938;7.626;2023-06-22T00:42:53;23.48;;;17.13;;
40781;SDS011;26493;51.938;7.626;2023-06-22T00:45:19;24.63;;;17.77;;
40781;SDS011;26493;51.938;7.626;2023-06-22T00:47:47;21.23;;;15.77;;
40781;SDS011;26493;51.938;7.626;2023-06-22T00:50:15;23.42;;;18.27;;
40781;SDS011;26493;51.938;7.626;2023-06-22T00:52:45;21.83;;;15.90;;
40781;SDS011;26493;51.938;7.626;2023-06-22T00:55:12;25.85;;;17.10;;
40781;SDS011;26493;51.938;7.626;2023-06-22T00:57:38;22.63;;;16.23;;
40781;SDS011;26493;51.938;7.626;2023-06-22T01:00:04;22.77;;;18.08;;
40781;SDS011;26493;51.938;7.626;2023-06-22T01:02:32;23.88;;;17.25;;
40781;SDS011;26493;51.938;7.626;2023-06-22T01:04:59;23.02;;;17.10;;
40781;SDS011;26493;51.938;7.626;2023-06-22T01:10:18;23.02;;;16.90;;
40781;SDS011;26493;51.938;7.626;2023-06-22T01:12:43;22.15;;;16.63;;
40781;SDS011;26493;51.938;7.626;2023-06-22T01:15:29;23.05;;;17.13;;
40781;SDS011;26493;51.938;7.626;2023-06-22T01:17:56;22.77;;;17.58;;
40781;SDS011;26493;51.938;7.626;2023-06-22T01:20:23;21.50;;;16.67;;
40781;SDS011;26493;51.938;7.626;2023-06-22T01:23:09;20.88;;;16.58;;
40781;SDS011;26493;51.938;7.626;2023-06-22T01:26:02;22.98;;;16.83;;
40781;SDS011;26493;51.938;7.626;2023-06-22T01:31:01;23.38;;;16.73;;
40781;SDS011;26493;51.938;7.626;2023-06-22T01:33:32;24.10;;;17.13;;
40781;SDS011;26493;51.938;7.626;2023-06-22T01:35:58;23.48;;;17.50;;
40781;SDS011;26493;51.938;7.626;2023-06-22T01:38:25;23.92;;;18.33;;
40781;SDS011;26493;51.938;7.626;2023-06-22T01:40:51;22.02;;;17.02;;
40781;SDS011;26493;51.938;7.626;2023-06-22T01:43:18;22.45;;;17.92;;
40781;SDS011;26493;51.938;7.626;2023-06-22T01:45:44;23.95;;;17.73;;
40781;SDS011;26493;51.938;7.626;2023-06-22T01:48:11;22.70;;;17.02;;
40781;SDS011;26493;51.938;7.626;2023-06-22T01:50:37;23.77;;;17.30;;
40781;SDS011;26493;51.938;7.626;2023-06-22T01:53:03;23.60;;;18.42;;
40781;SDS011;26493;51.938;7.626;2023-06-22T01:55:30;22.52;;;17.63;;
40781;SDS011;26493;51.938;7.626;2023-06-22T01:57:56;24.52;;;18.52;;
40781;SDS011;26493;51.938;7.626;2023-06-22T02:00:22;26.45;;;18.23;;
40781;SDS011;26493;51.938;7.626;2023-06-22T02:05:21;24.02;;;18.27;;
40781;SDS011;26493;51.938;7.626;2023-06-22T02:07:56;24.50;;;19.13;;
40781;SDS011;26493;51.938;7.626;2023-06-22T02:10:23;23.98;;;18.23;;
40781;SDS011;26493;51.938;7.626;2023-06-22T02:12:50;24.90;;;18.85;;
40781;SDS011;26493;51.938;7.626;2023-06-22T02:15:17;28.45;;;19.02;;
40781;SDS011;26493;51.938;7.626;2023-06-22T02:17:43;23.67;;;18.52;;
40781;SDS011;26493;51.938;7.626;2023-06-22T02:20:13;24.27;;;18.08;;
40781;SDS011;26493;51.938;7.626;2023-06-22T02:22:39;25.50;;;17.95;;
40781;SDS011;26493;51.938;7.626;2023-06-22T02:25:05;24.85;;;18.23;;
40781;SDS011;26493;51.938;7.626;2023-06-22T02:27:31;25.05;;;19.67;;
40781;SDS011;26493;51.938;7.626;2023-06-22T02:29:57;25.67;;;19.38;;
40781;SDS011;26493;51.938;7.626;2023-06-22T02:32:23;25.17;;;19.17;;
40781;SDS011;26493;51.938;7.626;2023-06-22T02:34:49;24.38;;;18.38;;
40781;SDS011;26493;51.938;7.626;2023-06-22T02:37:15;25.23;;;20.00;;
40781;SDS011;26493;51.938;7.626;2023-06-22T02:39:41;25.42;;;19.30;;
40781;SDS011;26493;51.938;7.626;2023-06-22T02:42:08;24.38;;;18.08;;
40781;SDS011;26493;51.938;7.626;2023-06-22T02:44:35;22.60;;;18.45;;
40781;SDS011;26493;51.938;7.626;2023-06-22T02:47:01;23.50;;;17.95;;
40781;SDS011;26493;51.938;7.626;2023-06-22T02:49:27;24.50;;;18.20;;
40781;SDS011;26493;51.938;7.626;2023-06-22T02:51:53;23.63;;;18.80;;
40781;SDS011;26493;51.938;7.626;2023-06-22T02:54:20;27.38;;;18.92;;
40781;SDS011;26493;51.938;7.626;2023-06-22T02:56:46;23.02;;;18.08;;
40781;SDS011;26493;51.938;7.626;2023-06-22T02:59:13;23.00;;;18.15;;
40781;SDS011;26493;51.938;7.626;2023-06-22T03:01:39;23.42;;;18.58;;
40781;SDS011;26493;51.938;7.626;2023-06-22T03:04:08;25.45;;;18.80;;
40781;SDS011;26493;51.938;7.626;2023-06-22T03:06:35;24.77;;;19.33;;
40781;SDS011;26493;51.938;7.626;2023-06-22T03:09:02;24.88;;;19.52;;
40781;SDS011;26493;51.938;7.626;2023-06-22T03:11:29;23.98;;;18.73;;
40781;SDS011;26493;51.938;7.626;2023-06-22T03:13:56;24.98;;;19.25;;
40781;SDS011;26493;51.938;7.626;2023-06-22T03:16:22;25.05;;;19.90;;
40781;SDS011;26493;51.938;7.626;2023-06-22T03:18:48;24.63;;;19.05;;
40781;SDS011;26493;51.938;7.626;2023-06-22T03:21:14;26.77;;;20.00;;
40781;SDS011;26493;51.938;7.626;2023-06-22T03:23:40;26.27;;;18.77;;
40781;SDS011;26493;51.938;7.626;2023-06-22T03:26:08;23.98;;;19.30;;
40781;SDS011;26493;51.938;7.626;2023-06-22T03:28:34;24.38;;;19.05;;
40781;SDS011;26493;51.938;7.626;2023-06-22T03:31:00;24.70;;;19.20;;
40781;SDS011;26493;51.938;7.626;2023-06-22T03:33:26;24.92;;;19.30;;
40781;SDS011;26493;51.938;7.626;2023-06-22T03:35:52;24.02;;;19.55;;
40781;SDS011;26493;51.938;7.626;2023-06-22T03:38:18;25.05;;;20.27;;
40781;SDS011;26493;51.938;7.626;2023-06-22T03:40:44;25.65;;;19.80;;
40781;SDS011;26493;51.938;7.626;2023-06-22T03:43:10;29.35;;;20.60;;
40781;SDS011;26493;51.938;7.626;2023-06-22T03:45:37;24.70;;;19.20;;
40781;SDS011;26493;51.938;7.626;2023-06-22T03:48:03;26.52;;;19.80;;
40781;SDS011;26493;51.938;7.626;2023-06-22T03:50:29;25.75;;;20.35;;
40781;SDS011;26493;51.938;7.626;2023-06-22T03:52:55;23.98;;;18.98;;
40781;SDS011;26493;51.938;7.626;2023-06-22T03:55:21;25.70;;;19.52;;
40781;SDS011;26493;51.938;7.626;2023-06-22T03:57:47;24.58;;;18.95;;
40781;SDS011;26493;51.938;7.626;2023-06-22T04:00:13;24.27;;;18.30;;
40781;SDS011;26493;51.938;7.626;2023-06-22T04:02:40;23.23;;;18.03;;
40781;SDS011;26493;51.938;7.626;2023-06-22T04:05:08;25.10;;;18.38;;
40781;SDS011;26493;51.938;7.626;2023-06-22T04:07:34;24.48;;;18.80;;
40781;SDS011;26493;51.938;7.626;2023-06-22T04:10:02;22.90;;;18.45;;
40781;SDS011;26493;51.938;7.626;2023-06-22T04:12:28;26.15;;;19.63;;
40781;SDS011;26493;51.938;7.626;2023-06-22T04:14:54;24.42;;;19.00;;
40781;SDS011;26493;51.938;7.626;2023-06-22T04:17:20;25.50;;;19.65;;
40781;SDS011;26493;51.938;7.626;2023-06-22T04:19:46;25.35;;;19.08;;
40781;SDS011;26493;51.938;7.626;2023-06-22T04:22:12;26.75;;;22.77;;
40781;SDS011;26493;51.938;7.626;2023-06-22T04:24:38;25.80;;;20.95;;
40781;SDS011;26493;51.938;7.626;2023-06-22T04:27:04;24.92;;;20.10;;
40781;SDS011;26493;51.938;7.626;2023-06-22T04:29:30;23.08;;;17.92;;
40781;SDS011;26493;51.938;7.626;2023-06-22T04:31:56;27.35;;;20.02;;
40781;SDS011;26493;51.938;7.626;2023-06-22T04:34:24;25.00;;;19.95;;
40781;SDS011;26493;51.938;7.626;2023-06-22T04:36:53;25.90;;;19.60;;
40781;SDS011;26493;51.938;7.626;2023-06-22T04:39:19;23.92;;;18.98;;
40781;SDS011;26493;51.938;7.626;2023-06-22T04:41:45;24.92;;;19.33;;
40781;SDS011;26493;51.938;7.626;2023-06-22T04:44:19;30.45;;;21.13;;
40781;SDS011;26493;51.938;7.626;2023-06-22T04:46:49;27.25;;;19.85;;
40781;SDS011;26493;51.938;7.626;2023-06-22T04:49:19;25.48;;;19.33;;
40781;SDS011;26493;51.938;7.626;2023-06-22T04:51:45;27.33;;;21.08;;
40781;SDS011;26493;51.938;7.626;2023-06-22T04:54:11;24.98;;;19.00;;
40781;SDS011;26493;51.938;7.626;2023-06-22T04:56:37;25.88;;;19.50;;
40781;SDS011;26493;51.938;7.626;2023-06-22T04:59:06;24.58;;;19.73;;
40781;SDS011;26493;51.938;7.626;2023-06-22T05:01:32;27.17;;;19.60;;
40781;SDS011;26493;51.938;7.626;2023-06-22T05:04:00;22.40;;;17.77;;
40781;SDS011;26493;51.938;7.626;2023-06-22T05:06:27;26.23;;;19.80;;
40781;SDS011;26493;51.938;7.626;2023-06-22T05:08:53;24.63;;;18.27;;
40781;SDS011;26493;51.938;7.626;2023-06-22T05:11:28;22.92;;;17.95;;
40781;SDS011;26493;51.938;7.626;2023-06-22T05:13:54;24.60;;;17.25;;
40781;SDS011;26493;51.938;7.626;2023-06-22T05:16:21;25.02;;;20.42;;
40781;SDS011;26493;51.938;7.626;2023-06-22T05:18:55;27.00;;;23.27;;
40781;SDS011;26493;51.938;7.626;2023-06-22T05:21:22;26.40;;;19.63;;
40781;SDS011;26493;51.938;7.626;2023-06-22T05:23:49;25.73;;;20.15;;
40781;SDS011;26493;51.938;7.626;2023-06-22T05:26:15;23.92;;;18.40;;
40781;SDS011;26493;51.938;7.626;2023-06-22T05:28:41;27.15;;;17.65;;
40781;SDS011;26493;51.938;7.626;2023-06-22T05:31:10;25.60;;;18.75;;
40781;SDS011;26493;51.938;7.626;2023-06-22T05:33:36;27.90;;;21.27;;
40781;SDS011;26493;51.938;7.626;2023-06-22T05:36:02;27.40;;;18.05;;
40781;SDS011;26493;51.938;7.626;2023-06-22T05:38:28;26.27;;;19.40;;
40781;SDS011;26493;51.938;7.626;2023-06-22T05:40:54;26.92;;;20.55;;
40781;SDS011;26493;51.938;7.626;2023-06-22T05:43:20;24.15;;;17.38;;
40781;SDS011;26493;51.938;7.626;2023-06-22T05:45:46;27.10;;;19.40;;
40781;SDS011;26493;51.938;7.626;2023-06-22T05:48:12;25.08;;;18.02;;
40781;SDS011;26493;51.938;7.626;2023-06-22T05:50:38;26.90;;;18.25;;
40781;SDS011;26493;51.938;7.626;2023-06-22T05:53:04;25.52;;;18.02;;
40781;SDS011;26493;51.938;7.626;2023-06-22T05:55:32;25.58;;;20.45;;
40781;SDS011;26493;51.938;7.626;2023-06-22T05:57:58;27.02;;;22.00;;
40781;SDS011;26493;51.938;7.626;2023-06-22T06:00:24;25.58;;;18.55;;
40781;SDS011;26493;51.938;7.626;2023-06-22T06:02:50;27.80;;;19.80;;
40781;SDS011;26493;51.938;7.626;2023-06-22T06:05:16;24.15;;;18.23;;
40781;SDS011;26493;51.938;7.626;2023-06-22T06:07:44;22.42;;;17.70;;
40781;SDS011;26493;51.938;7.626;2023-06-22T06:10:10;22.25;;;17.35;;
40781;SDS011;26493;51.938;7.626;2023-06-22T06:12:36;23.85;;;17.55;;
40781;SDS011;26493;51.938;7.626;2023-06-22T06:15:23;25.15;;;19.05;;
40781;SDS011;26493;51.938;7.626;2023-06-22T06:17:49;23.80;;;16.95;;
40781;SDS011;26493;51.938;7.626;2023-06-22T06:20:17;27.15;;;18.13;;
40781;SDS011;26493;51.938;7.626;2023-06-22T06:22:43;25.65;;;18.80;;
40781;SDS011;26493;51.938;7.626;2023-06-22T06:25:09;24.98;;;17.88;;
40781;SDS011;26493;51.938;7.626;2023-06-22T06:27:40;23.30;;;17.00;;
40781;SDS011;26493;51.938;7.626;2023-06-22T06:30:06;24.17;;;17.10;;
40781;SDS011;26493;51.938;7.626;2023-06-22T06:32:33;27.95;;;18.08;;
40781;SDS011;26493;51.938;7.626;2023-06-22T06:34:59;26.67;;;18.27;;
40781;SDS011;26493;51.938;7.626;2023-06-22T06:37:25;24.45;;;17.88;;
40781;SDS011;26493;51.938;7.626;2023-06-22T06:39:51;24.30;;;17.50;;
40781;SDS011;26493;51.938;7.626;2023-06-22T06:42:16;31.38;;;19.88;;
40781;SDS011;26493;51.938;7.626;2023-06-22T06:44:44;28.10;;;17.67;;
40781;SDS011;26493;51.938;7.626;2023-06-22T06:47:10;28.02;;;17.42;;
40781;SDS011;26493;51.938;7.626;2023-06-22T06:49:36;25.30;;;18.17;;
40781;SDS011;26493;51.938;7.626;2023-06-22T06:52:02;28.45;;;18.02;;
40781;SDS011;26493;51.938;7.626;2023-06-22T06:54:28;24.67;;;17.55;;
40781;SDS011;26493;51.938;7.626;2023-06-22T06:56:54;24.67;;;17.10;;
40781;SDS011;26493;51.938;7.626;2023-06-22T06:59:20;22.17;;;16.48;;
40781;SDS011;26493;51.938;7.626;2023-06-22T07:01:46;27.65;;;18.45;;
40781;SDS011;26493;51.938;7.626;2023-06-22T07:04:13;24.77;;;18.67;;
40781;SDS011;26493;51.938;7.626;2023-06-22T07:06:39;24.75;;;17.92;;
40781;SDS011;26493;51.938;7.626;2023-06-22T07:09:05;21.75;;;16.80;;
40781;SDS011;26493;51.938;7.626;2023-06-22T07:11:31;22.77;;;17.83;;
40781;SDS011;26493;51.938;7.626;2023-06-22T07:13:57;22.90;;;17.63;;
40781;SDS011;26493;51.938;7.626;2023-06-22T07:16:23;25.45;;;17.67;;
40781;SDS011;26493;51.938;7.626;2023-06-22T07:18:50;22.80;;;17.88;;
40781;SDS011;26493;51.938;7.626;2023-06-22T07:21:16;21.90;;;18.45;;
40781;SDS011;26493;51.938;7.626;2023-06-22T07:23:43;23.23;;;17.90;;
40781;SDS011;26493;51.938;7.626;2023-06-22T07:26:12;22.25;;;17.27;;
40781;SDS011;26493;51.938;7.626;2023-06-22T07:28:38;21.17;;;17.30;;
40781;SDS011;26493;51.938;7.626;2023-06-22T07:31:05;23.52;;;17.92;;
40781;SDS011;26493;51.938;7.626;2023-06-22T07:33:32;23.30;;;17.92;;
40781;SDS011;26493;51.938;7.626;2023-06-22T07:35:58;22.42;;;18.73;;
40781;SDS011;26493;51.938;7.626;2023-06-22T07:38:24;24.05;;;18.90;;
40781;SDS011;26493;51.938;7.626;2023-06-22T07:40:50;22.70;;;19.17;;
40781;SDS011;26493;51.938;7.626;2023-06-22T07:43:18;23.33;;;17.83;;
40781;SDS011;26493;51.938;7.626;2023-06-22T07:45:49;25.08;;;18.65;;
40781;SDS011;26493;51.938;7.626;2023-06-22T07:48:17;23.83;;;18.42;;
40781;SDS011;26493;51.938;7.626;2023-06-22T07:50:43;21.95;;;18.83;;
40781;SDS011;26493;51.938;7.626;2023-06-22T07:53:09;24.52;;;19.90;;
40781;SDS011;26493;51.938;7.626;2023-06-22T07:55:35;32.17;;;27.65;;
40781;SDS011;26493;51.938;7.626;2023-06-22T07:58:01;30.48;;;26.40;;
40781;SDS011;26493;51.938;7.626;2023-06-22T08:00:27;25.73;;;21.05;;
40781;SDS011;26493;51.938;7.626;2023-06-22T08:02:53;23.77;;;19.67;;
40781;SDS011;26493;51.938;7.626;2023-06-22T08:05:19;24.75;;;19.63;;
40781;SDS011;26493;51.938;7.626;2023-06-22T08:07:45;22.65;;;19.30;;
40781;SDS011;26493;51.938;7.626;2023-06-22T08:10:11;26.67;;;18.90;;
40781;SDS011;26493;51.938;7.626;2023-06-22T08:12:38;22.77;;;19.88;;
40781;SDS011;26493;51.938;7.626;2023-06-22T08:15:04;28.92;;;24.00;;
40781;SDS011;26493;51.938;7.626;2023-06-22T08:17:31;24.65;;;18.67;;
40781;SDS011;26493;51.938;7.626;2023-06-22T08:19:57;28.08;;;20.40;;
40781;SDS011;26493;51.938;7.626;2023-06-22T08:22:23;26.50;;;18.85;;
40781;SDS011;26493;51.938;7.626;2023-06-22T08:24:49;24.70;;;19.58;;
40781;SDS011;26493;51.938;7.626;2023-06-22T08:27:15;31.45;;;20.08;;
40781;SDS011;26493;51.938;7.626;2023-06-22T08:29:43;24.10;;;19.73;;
40781;SDS011;26493;51.938;7.626;2023-06-22T08:32:10;23.17;;;19.65;;
40781;SDS011;26493;51.938;7.626;2023-06-22T08:34:36;23.60;;;18.30;;
40781;SDS011;26493;51.938;7.626;2023-06-22T08:37:07;24.63;;;20.02;;
40781;SDS011;26493;51.938;7.626;2023-06-22T08:39:33;22.63;;;18.50;;
40781;SDS011;26493;51.938;7.626;2023-06-22T08:41:59;24.60;;;20.73;;
40781;SDS011;26493;51.938;7.626;2023-06-22T08:44:25;24.83;;;20.20;;
40781;SDS011;26493;51.938;7.626;2023-06-22T08:46:51;23.13;;;19.35;;
40781;SDS011;26493;51.938;7.626;2023-06-22T08:49:17;25.13;;;20.25;;
40781;SDS011;26493;51.938;7.626;2023-06-22T08:51:43;24.10;;;19.75;;
40781;SDS011;26493;51.938;7.626;2023-06-22T08:54:10;26.88;;;20.15;;
40781;SDS011;26493;51.938;7.626;2023-06-22T08:56:36;24.45;;;20.10;;
40781;SDS011;26493;51.938;7.626;2023-06-22T08:59:03;25.10;;;21.27;;
40781;SDS011;26493;51.938;7.626;2023-06-22T09:01:29;29.55;;;25.92;;
40781;SDS011;26493;51.938;7.626;2023-06-22T09:03:54;24.58;;;20.67;;
40781;SDS011;26493;51.938;7.626;2023-06-22T09:06:22;22.95;;;20.00;;
40781;SDS011;26493;51.938;7.626;2023-06-22T09:08:48;23.83;;;20.58;;
40781;SDS011;26493;51.938;7.626;2023-06-22T09:11:14;24.48;;;19.83;;
40781;SDS011;26493;51.938;7.626;2023-06-22T09:13:40;24.55;;;19.90;;
40781;SDS011;26493;51.938;7.626;2023-06-22T09:16:07;24.17;;;19.88;;
40781;SDS011;26493;51.938;7.626;2023-06-22T09:18:36;23.10;;;20.60;;
40781;SDS011;26493;51.938;7.626;2023-06-22T09:21:02;23.15;;;20.65;;
40781;SDS011;26493;51.938;7.626;2023-06-22T09:23:28;24.92;;;20.67;;
40781;SDS011;26493;51.938;7.626;2023-06-22T09:25:54;24.75;;;19.90;;
40781;SDS011;26493;51.938;7.626;2023-06-22T09:28:20;22.27;;;19.60;;
40781;SDS011;26493;51.938;7.626;2023-06-22T09:30:46;25.75;;;21.90;;
40781;SDS011;26493;51.938;7.626;2023-06-22T09:33:12;24.95;;;20.67;;
40781;SDS011;26493;51.938;7.626;2023-06-22T09:35:38;25.45;;;20.92;;
40781;SDS011;26493;51.938;7.626;2023-06-22T09:38:04;24.65;;;22.02;;
40781;SDS011;26493;51.938;7.626;2023-06-22T09:40:30;25.92;;;22.42;;
40781;SDS011;26493;51.938;7.626;2023-06-22T09:43:00;25.95;;;21.25;;
40781;SDS011;26493;51.938;7.626;2023-06-22T09:45:26;25.08;;;21.50;;
40781;SDS011;26493;51.938;7.626;2023-06-22T09:47:52;27.05;;;22.35;;
40781;SDS011;26493;51.938;7.626;2023-06-22T09:50:18;24.95;;;22.25;;
40781;SDS011;26493;51.938;7.626;2023-06-22T09:52:44;25.70;;;21.20;;
40781;SDS011;26493;51.938;7.626;2023-06-22T09:55:15;23.10;;;19.48;;
40781;SDS011;26493;51.938;7.626;2023-06-22T09:57:41;23.08;;;20.60;;
40781;SDS011;26493;51.938;7.626;2023-06-22T10:00:07;23.20;;;20.63;;
40781;SDS011;26493;51.938;7.626;2023-06-22T10:02:34;22.60;;;20.17;;
40781;SDS011;26493;51.938;7.626;2023-06-22T10:05:00;22.33;;;19.65;;
40781;SDS011;26493;51.938;7.626;2023-06-22T10:07:26;23.10;;;20.70;;
40781;SDS011;26493;51.938;7.626;2023-06-22T10:09:52;23.77;;;20.70;;
40781;SDS011;26493;51.938;7.626;2023-06-22T10:12:18;23.45;;;20.92;;
40781;SDS011;26493;51.938;7.626;2023-06-22T10:14:44;24.40;;;21.23;;
40781;SDS011;26493;51.938;7.626;2023-06-22T10:17:10;22.92;;;20.42;;
40781;SDS011;26493;51.938;7.626;2023-06-22T10:19:36;22.17;;;18.40;;
40781;SDS011;26493;51.938;7.626;2023-06-22T10:22:04;24.38;;;20.73;;
40781;SDS011;26493;51.938;7.626;2023-06-22T10:24:30;22.58;;;20.17;;
40781;SDS011;26493;51.938;7.626;2023-06-22T10:26:56;24.15;;;21.30;;
40781;SDS011;26493;51.938;7.626;2023-06-22T10:29:22;23.77;;;21.13;;
40781;SDS011;26493;51.938;7.626;2023-06-22T10:31:48;25.27;;;21.35;;
40781;SDS011;26493;51.938;7.626;2023-06-22T10:34:14;24.40;;;20.85;;
40781;SDS011;26493;51.938;7.626;2023-06-22T10:36:40;23.40;;;20.83;;
40781;SDS011;26493;51.938;7.626;2023-06-22T10:39:06;23.23;;;20.83;;
40781;SDS011;26493;51.938;7.626;2023-06-22T10:41:32;22.70;;;20.27;;
40781;SDS011;26493;51.938;7.626;2023-06-22T10:43:58;22.70;;;20.23;;
40781;SDS011;26493;51.938;7.626;2023-06-22T10:46:24;23.05;;;20.55;;
40781;SDS011;26493;51.938;7.626;2023-06-22T10:48:51;23.35;;;20.88;;
40781;SDS011;26493;51.938;7.626;2023-06-22T10:51:19;22.83;;;20.33;;
40781;SDS011;26493;51.938;7.626;2023-06-22T10:53:45;23.10;;;20.55;;
40781;SDS011;26493;51.938;7.626;2023-06-22T10:56:11;23.77;;;20.73;;
40781;SDS011;26493;51.938;7.626;2023-06-22T10:58:37;23.48;;;21.08;;
40781;SDS011;26493;51.938;7.626;2023-06-22T11:01:03;23.58;;;20.73;;
40781;SDS011;26493;51.938;7.626;2023-06-22T11:03:29;23.73;;;20.73;;
40781;SDS011;26493;51.938;7.626;2023-06-22T11:05:55;27.50;;;21.45;;
40781;SDS011;26493;51.938;7.626;2023-06-22T11:08:21;24.75;;;21.15;;
40781;SDS011;26493;51.938;7.626;2023-06-22T11:10:47;24.55;;;21.60;;
40781;SDS011;26493;51.938;7.626;2023-06-22T11:13:13;23.40;;;20.90;;
40781;SDS011;26493;51.938;7.626;2023-06-22T11:15:40;24.85;;;22.25;;
40781;SDS011;26493;51.938;7.626;2023-06-22T11:18:06;23.58;;;20.92;;
40781;SDS011;26493;51.938;7.626;2023-06-22T11:20:32;23.27;;;20.80;;
40781;SDS011;26493;51.938;7.626;2023-06-22T11:23:03;23.10;;;20.60;;
40781;SDS011;26493;51.938;7.626;2023-06-22T11:25:29;21.75;;;19.42;;
40781;SDS011;26493;51.938;7.626;2023-06-22T11:27:55;24.48;;;21.25;;
40781;SDS011;26493;51.938;7.626;2023-06-22T11:30:21;24.15;;;21.55;;
40781;SDS011;26493;51.938;7.626;2023-06-22T11:32:48;24.00;;;21.50;;
40781;SDS011;26493;51.938;7.626;2023-06-22T11:35:14;23.50;;;20.83;;
40781;SDS011;26493;51.938;7.626;2023-06-22T11:37:40;25.40;;;21.27;;
40781;SDS011;26493;51.938;7.626;2023-06-22T11:40:07;25.03;;;21.77;;
40781;SDS011;26493;51.938;7.626;2023-06-22T11:42:34;24.17;;;21.30;;
40781;SDS011;26493;51.938;7.626;2023-06-22T11:45:00;24.58;;;22.00;;
40781;SDS011;26493;51.938;7.626;2023-06-22T11:47:26;25.08;;;22.33;;
40781;SDS011;26493;51.938;7.626;2023-06-22T11:49:52;28.05;;;22.73;;
40781;SDS011;26493;51.938;7.626;2023-06-22T11:52:18;25.60;;;22.88;;
40781;SDS011;26493;51.938;7.626;2023-06-22T11:54:44;25.45;;;22.75;;
40781;SDS011;26493;51.938;7.626;2023-06-22T11:57:10;25.77;;;22.80;;
40781;SDS011;26493;51.938;7.626;2023-06-22T11:59:37;29.42;;;26.23;;
40781;SDS011;26493;51.938;7.626;2023-06-22T12:02:03;25.67;;;22.92;;
40781;SDS011;26493;51.938;7.626;2023-06-22T12:04:30;27.48;;;23.30;;
40781;SDS011;26493;51.938;7.626;2023-06-22T12:06:56;26.00;;;22.67;;
40781;SDS011;26493;51.938;7.626;2023-06-22T12:09:23;25.42;;;21.80;;
40781;SDS011;26493;51.938;7.626;2023-06-22T12:11:49;26.83;;;23.00;;
40781;SDS011;26493;51.938;7.626;2023-06-22T12:14:15;23.73;;;20.05;;
40781;SDS011;26493;51.938;7.626;2023-06-22T12:16:41;25.17;;;22.42;;
40781;SDS011;26493;51.938;7.626;2023-06-22T12:19:08;26.27;;;22.90;;
40781;SDS011;26493;51.938;7.626;2023-06-22T12:21:34;25.67;;;22.83;;
40781;SDS011;26493;51.938;7.626;2023-06-22T12:24:00;25.17;;;21.73;;
40781;SDS011;26493;51.938;7.626;2023-06-22T12:26:26;26.25;;;23.17;;
40781;SDS011;26493;51.938;7.626;2023-06-22T12:28:52;27.98;;;23.92;;
40781;SDS011;26493;51.938;7.626;2023-06-22T12:31:18;27.27;;;23.48;;
40781;SDS011;26493;51.938;7.626;2023-06-22T12:33:44;28.35;;;21.08;;
40781;SDS011;26493;51.938;7.626;2023-06-22T12:36:10;24.40;;;21.40;;
40781;SDS011;26493;51.938;7.626;2023-06-22T12:38:36;24.15;;;21.25;;
40781;SDS011;26493;51.938;7.626;2023-06-22T12:41:02;24.83;;;21.95;;
40781;SDS011;26493;51.938;7.626;2023-06-22T12:43:28;25.25;;;22.05;;
40781;SDS011;26493;51.938;7.626;2023-06-22T12:45:54;27.98;;;24.98;;
40781;SDS011;26493;51.938;7.626;2023-06-22T12:48:21;24.65;;;21.95;;
40781;SDS011;26493;51.938;7.626;2023-06-22T12:50:47;25.30;;;22.30;;
40781;SDS011;26493;51.938;7.626;2023-06-22T12:53:13;26.92;;;22.25;;
40781;SDS011;26493;51.938;7.626;2023-06-22T12:55:39;25.88;;;22.15;;
40781;SDS011;26493;51.938;7.626;2023-06-22T12:58:05;26.70;;;22.95;;
40781;SDS011;26493;51.938;7.626;2023-06-22T13:00:31;28.17;;;23.95;;
40781;SDS011;26493;51.938;7.626;2023-06-22T13:02:57;31.63;;;23.80;;
40781;SDS011;26493;51.938;7.626;2023-06-22T13:05:23;30.55;;;23.35;;
40781;SDS011;26493;51.938;7.626;2023-06-22T13:07:49;35.10;;;24.60;;
40781;SDS011;26493;51.938;7.626;2023-06-22T13:10:15;30.77;;;26.10;;
40781;SDS011;26493;51.938;7.626;2023-06-22T13:12:41;29.33;;;26.23;;
40781;SDS011;26493;51.938;7.626;2023-06-22T13:15:07;30.20;;;26.40;;
40781;SDS011;26493;51.938;7.626;2023-06-22T13:17:33;30.27;;;26.00;;
40781;SDS011;26493;51.938;7.626;2023-06-22T13:19:59;30.60;;;25.90;;
40781;SDS011;26493;51.938;7.626;2023-06-22T13:24:52;31.10;;;25.08;;
40781;SDS011;26493;51.938;7.626;2023-06-22T13:27:18;30.65;;;27.23;;
40781;SDS011;26493;51.938;7.626;2023-06-22T13:29:44;29.00;;;25.60;;
40781;SDS011;26493;51.938;7.626;2023-06-22T13:32:10;30.02;;;25.55;;
40781;SDS011;26493;51.938;7.626;2023-06-22T13:34:36;30.50;;;25.33;;
40781;SDS011;26493;51.938;7.626;2023-06-22T13:37:02;30.27;;;25.30;;
40781;SDS011;26493;51.938;7.626;2023-06-22T13:39:29;32.00;;;27.77;;
40781;SDS011;26493;51.938;7.626;2023-06-22T13:41:55;31.33;;;26.48;;
40781;SDS011;26493;51.938;7.626;2023-06-22T13:44:21;29.27;;;26.08;;
40781;SDS011;26493;51.938;7.626;2023-06-22T13:46:47;30.05;;;25.13;;
40781;SDS011;26493;51.938;7.626;2023-06-22T13:49:13;31.52;;;26.67;;
40781;SDS011;26493;51.938;7.626;2023-06-22T13:51:39;29.70;;;24.30;;
40781;SDS011;26493;51.938;7.626;2023-06-22T13:54:05;29.75;;;25.20;;
40781;SDS011;26493;51.938;7.626;2023-06-22T13:56:32;30.83;;;25.45;;
40781;SDS011;26493;51.938;7.626;2023-06-22T13:58:58;28.25;;;24.98;;
40781;SDS011;26493;51.938;7.626;2023-06-22T14:01:24;29.05;;;24.85;;
40781;SDS011;26493;51.938;7.626;2023-06-22T14:03:50;28.88;;;24.65;;
40781;SDS011;26493;51.938;7.626;2023-06-22T14:06:16;28.40;;;25.40;;
40781;SDS011;26493;51.938;7.626;2023-06-22T14:08:42;28.00;;;25.00;;
40781;SDS011;26493;51.938;7.626;2023-06-22T14:11:08;26.85;;;23.73;;
40781;SDS011;26493;51.938;7.626;2023-06-22T14:13:34;26.80;;;23.02;;
40781;SDS011;26493;51.938;7.626;2023-06-22T14:16:00;30.23;;;23.20;;
40781;SDS011;26493;51.938;7.626;2023-06-22T14:18:26;25.83;;;20.23;;
40781;SDS011;26493;51.938;7.626;2023-06-22T14:20:52;27.65;;;22.55;;
40781;SDS011;26493;51.938;7.626;2023-06-22T14:23:18;25.85;;;20.67;;
40781;SDS011;26493;51.938;7.626;2023-06-22T14:25:44;26.20;;;21.58;;
40781;SDS011;26493;51.938;7.626;2023-06-22T14:28:10;25.65;;;21.35;;